Hauptseite
METAR-TAF:

METAR-TAF

Flughäfen :

Flughafen Marka International

Amman, Jordanien

Breite: 31-59N, Länge: 035-59E, Höhe: 767 m

Beobachtung

Neuester Wetterbericht von vor 20 Minuten, um 04:00 UTC
Windstille
Temperatur 4°C
Luftfeuchtigkeit 70%
Luftdruck 1019 hPa
Sichtweite: 4000 m
trockener Dunst

METAR: OJAM 210400Z 00000KT 4000 HZ NSC 04/M01 Q1019 NOSIG

Zeit: 06:20 (04:20 UTC)

Prognose

Neuester Wetterbericht von vor 5 Stunden und 20 Minuten, um 23:00 UTC
Gültige Prognose vom 21 um 00 UTC bis 22 um 06 UTC
Wind 10 kt aus Ost/Südost
Sichtweite: 5000 m
trockener Dunst
Übergehend zu
vom 21 um 08 UTC bis 21 um 10 UTC
Wind 10 kt aus West
Zeitweise
vom 21 um 21 UTC bis 22 um 06 UTC
Wind 6 kt aus Südost

TAF: OJAM 202300Z 2100/2206 12010KT 5000 HZ NSC BECMG 2108/2110 28010KT TEMPO 2121/2206 13006KT

Wetterbeobachtungen und Prognosen von mehr als 4000 Flughäfen (METAR und TAF Bericht).

Die verfügbaren Stationen werden durch gelbe und rote Markierungen auf der Karte dargestellt.

Führen Sie die Maus auf sie, um den Namen der Station zu sehen.

Darauf klicken, um die Beobachtung von Wetterbeobachtungen und Prognosen zu sehen.

Um die Karte zu ändern : klicken Sie auf den grünen Tasten mit einem schwarzen Kreuz Zum Vergrößern, auf den grünen Button mit einem Gedankenstrich zu verkleinern, oder auf die grünen Pfeile für benachbarte Karten.


METAR-TAF: